Abilene, Texas
Current Conditions -  °F | °C
As of 10:52 PM on Wednesday 26 Nov 2014 (Local Time) from KABI Reporting Station
Clear Clear  
Wind Chill: 42°   Ceiling: Unl
Heat Index: 45°   Visibility: 10mi
Dew Point: 34°   Wind: 6mph
Humidity: 65%   Direction: 80°E
Pressure: 30.4"   Gusts: NA
Location:  32.45°N, 99.74°W
Report Text: KABI 270452Z 08005KT 10SM CLR 07/01 A3040 RMK AO2 SLP290 T00720011
Loading
Personal Weather Stations






























Interactive Weather Map New forecast layout! Learn more

10-Day Weather Forecast

Advertisements
Track Severe Weather on mobile